Terminal Aerodrome Forecast
Issued by NWS

Home | Current Version | Previous Version | Text Only | Print | Product List | Glossary On
Versions: 1 2 3 4 5 6 7 8 9 10 11 12 13 14 15 16 17 18 19 20 21 22 23 24 25 26 27 28 29 30 31 32 33 34 35 36
269
FTUS41 KOKX 212349
TAFTEB
TAF
KTEB 212349Z 2200/2306 21008KT P6SM SCT035 BKN100
      TEMPO 2200/2201 34015G25KT -SHRA BKN035
     FM220100 34012G18KT P6SM VCSH SCT025 BKN035
      TEMPO 2202/2206 BKN025
     FM220700 36008KT P6SM BKN040
     FM221500 02008KT P6SM VCSH SCT015 BKN030
     FM221800 02010G16KT 3SM -RA OVC015
     FM222100 02010G16KT 3SM -RAPL OVC007
     FM230000 02008KT 3SM -DZPL OVC007=

USA.gov is the U.S. government's official web portal to all federal, state and local government web resources and services.